sensor_id;sensor_type;location;lat;lon;timestamp;P1;durP1;ratioP1;P2;durP2;ratioP2
24383;SDS011;12504;52.870;8.798;2022-07-23T00:00:15;5.88;;;4.57;;
24383;SDS011;12504;52.870;8.798;2022-07-23T00:02:42;6.18;;;3.95;;
24383;SDS011;12504;52.870;8.798;2022-07-23T00:05:09;5.78;;;3.58;;
24383;SDS011;12504;52.870;8.798;2022-07-23T00:07:35;7.88;;;3.47;;
24383;SDS011;12504;52.870;8.798;2022-07-23T00:10:01;6.03;;;4.03;;
24383;SDS011;12504;52.870;8.798;2022-07-23T00:12:27;7.32;;;3.78;;
24383;SDS011;12504;52.870;8.798;2022-07-23T00:14:52;10.32;;;4.28;;
24383;SDS011;12504;52.870;8.798;2022-07-23T00:17:18;5.47;;;3.50;;
24383;SDS011;12504;52.870;8.798;2022-07-23T00:19:44;9.82;;;3.97;;
24383;SDS011;12504;52.870;8.798;2022-07-23T00:22:09;7.35;;;4.18;;
24383;SDS011;12504;52.870;8.798;2022-07-23T00:24:35;8.18;;;4.13;;
24383;SDS011;12504;52.870;8.798;2022-07-23T00:27:01;12.07;;;5.32;;
24383;SDS011;12504;52.870;8.798;2022-07-23T00:29:27;8.07;;;4.80;;
24383;SDS011;12504;52.870;8.798;2022-07-23T00:31:52;7.20;;;5.00;;
24383;SDS011;12504;52.870;8.798;2022-07-23T00:34:18;9.02;;;4.90;;
24383;SDS011;12504;52.870;8.798;2022-07-23T00:36:43;9.18;;;4.40;;
24383;SDS011;12504;52.870;8.798;2022-07-23T00:39:09;7.50;;;4.82;;
24383;SDS011;12504;52.870;8.798;2022-07-23T00:41:35;9.38;;;5.35;;
24383;SDS011;12504;52.870;8.798;2022-07-23T00:44:17;5.80;;;4.22;;
24383;SDS011;12504;52.870;8.798;2022-07-23T00:46:52;10.55;;;4.90;;
24383;SDS011;12504;52.870;8.798;2022-07-23T00:49:20;8.13;;;4.38;;
24383;SDS011;12504;52.870;8.798;2022-07-23T00:51:48;9.98;;;6.07;;
24383;SDS011;12504;52.870;8.798;2022-07-23T00:54:15;8.98;;;4.93;;
24383;SDS011;12504;52.870;8.798;2022-07-23T00:56:43;7.93;;;5.50;;
24383;SDS011;12504;52.870;8.798;2022-07-23T00:59:10;8.77;;;4.68;;
24383;SDS011;12504;52.870;8.798;2022-07-23T01:01:36;9.18;;;4.45;;
24383;SDS011;12504;52.870;8.798;2022-07-23T01:04:01;7.85;;;4.75;;
24383;SDS011;12504;52.870;8.798;2022-07-23T01:06:27;8.15;;;4.85;;
24383;SDS011;12504;52.870;8.798;2022-07-23T01:08:53;8.80;;;4.70;;
24383;SDS011;12504;52.870;8.798;2022-07-23T01:11:21;12.10;;;4.07;;
24383;SDS011;12504;52.870;8.798;2022-07-23T01:13:48;9.32;;;4.05;;
24383;SDS011;12504;52.870;8.798;2022-07-23T01:16:14;9.27;;;4.80;;
24383;SDS011;12504;52.870;8.798;2022-07-23T01:18:40;8.07;;;4.63;;
24383;SDS011;12504;52.870;8.798;2022-07-23T01:21:06;10.27;;;3.63;;
24383;SDS011;12504;52.870;8.798;2022-07-23T01:23:34;7.57;;;4.20;;
24383;SDS011;12504;52.870;8.798;2022-07-23T01:26:00;15.90;;;5.30;;
24383;SDS011;12504;52.870;8.798;2022-07-23T01:28:26;6.32;;;3.60;;
24383;SDS011;12504;52.870;8.798;2022-07-23T01:30:54;9.70;;;4.82;;
24383;SDS011;12504;52.870;8.798;2022-07-23T01:33:19;8.60;;;4.47;;
24383;SDS011;12504;52.870;8.798;2022-07-23T01:35:45;9.13;;;4.45;;
24383;SDS011;12504;52.870;8.798;2022-07-23T01:38:16;9.15;;;4.78;;
24383;SDS011;12504;52.870;8.798;2022-07-23T01:40:42;36.85;;;5.93;;
24383;SDS011;12504;52.870;8.798;2022-07-23T01:43:09;12.52;;;5.47;;
24383;SDS011;12504;52.870;8.798;2022-07-23T01:45:36;7.07;;;5.10;;
24383;SDS011;12504;52.870;8.798;2022-07-23T01:48:02;8.32;;;4.60;;
24383;SDS011;12504;52.870;8.798;2022-07-23T01:50:29;8.95;;;5.20;;
24383;SDS011;12504;52.870;8.798;2022-07-23T01:53:08;9.00;;;5.10;;
24383;SDS011;12504;52.870;8.798;2022-07-23T01:55:35;8.65;;;4.82;;
24383;SDS011;12504;52.870;8.798;2022-07-23T01:58:01;9.35;;;5.03;;
24383;SDS011;12504;52.870;8.798;2022-07-23T02:00:28;7.95;;;5.50;;
24383;SDS011;12504;52.870;8.798;2022-07-23T02:02:54;8.95;;;5.03;;
24383;SDS011;12504;52.870;8.798;2022-07-23T02:05:21;6.22;;;4.35;;
24383;SDS011;12504;52.870;8.798;2022-07-23T02:07:46;6.82;;;4.50;;
24383;SDS011;12504;52.870;8.798;2022-07-23T02:10:12;9.32;;;5.65;;
24383;SDS011;12504;52.870;8.798;2022-07-23T02:12:38;6.90;;;4.40;;
24383;SDS011;12504;52.870;8.798;2022-07-23T02:15:04;6.63;;;4.43;;
24383;SDS011;12504;52.870;8.798;2022-07-23T02:17:30;9.13;;;5.00;;
24383;SDS011;12504;52.870;8.798;2022-07-23T02:19:56;12.18;;;5.40;;
24383;SDS011;12504;52.870;8.798;2022-07-23T02:22:22;10.73;;;5.90;;
24383;SDS011;12504;52.870;8.798;2022-07-23T02:24:48;10.85;;;5.90;;
24383;SDS011;12504;52.870;8.798;2022-07-23T02:27:13;8.77;;;5.15;;
24383;SDS011;12504;52.870;8.798;2022-07-23T02:29:40;10.25;;;5.88;;
24383;SDS011;12504;52.870;8.798;2022-07-23T02:32:05;11.25;;;5.38;;
24383;SDS011;12504;52.870;8.798;2022-07-23T02:34:31;13.32;;;5.53;;
24383;SDS011;12504;52.870;8.798;2022-07-23T02:36:57;12.55;;;5.95;;
24383;SDS011;12504;52.870;8.798;2022-07-23T02:39:24;7.68;;;5.20;;
24383;SDS011;12504;52.870;8.798;2022-07-23T02:41:51;11.93;;;6.10;;
24383;SDS011;12504;52.870;8.798;2022-07-23T02:44:16;12.00;;;6.15;;
24383;SDS011;12504;52.870;8.798;2022-07-23T02:46:46;10.95;;;5.03;;
24383;SDS011;12504;52.870;8.798;2022-07-23T02:49:11;10.88;;;5.50;;
24383;SDS011;12504;52.870;8.798;2022-07-23T02:51:37;11.23;;;5.70;;
24383;SDS011;12504;52.870;8.798;2022-07-23T02:54:05;9.93;;;5.70;;
24383;SDS011;12504;52.870;8.798;2022-07-23T02:56:31;11.05;;;6.20;;
24383;SDS011;12504;52.870;8.798;2022-07-23T02:58:57;10.77;;;4.72;;
24383;SDS011;12504;52.870;8.798;2022-07-23T03:01:23;8.23;;;5.95;;
24383;SDS011;12504;52.870;8.798;2022-07-23T03:03:48;9.80;;;5.95;;
24383;SDS011;12504;52.870;8.798;2022-07-23T03:06:14;8.82;;;5.03;;
24383;SDS011;12504;52.870;8.798;2022-07-23T03:08:40;7.70;;;5.45;;
24383;SDS011;12504;52.870;8.798;2022-07-23T03:11:05;12.30;;;6.03;;
24383;SDS011;12504;52.870;8.798;2022-07-23T03:13:37;11.88;;;7.18;;
24383;SDS011;12504;52.870;8.798;2022-07-23T03:16:03;9.90;;;6.07;;
24383;SDS011;12504;52.870;8.798;2022-07-23T03:18:30;11.75;;;6.18;;
24383;SDS011;12504;52.870;8.798;2022-07-23T03:20:56;10.05;;;5.72;;
24383;SDS011;12504;52.870;8.798;2022-07-23T03:23:21;10.13;;;5.78;;
24383;SDS011;12504;52.870;8.798;2022-07-23T03:25:47;11.27;;;6.55;;
24383;SDS011;12504;52.870;8.798;2022-07-23T03:28:14;11.70;;;5.55;;
24383;SDS011;12504;52.870;8.798;2022-07-23T03:30:44;10.90;;;6.70;;
24383;SDS011;12504;52.870;8.798;2022-07-23T03:33:12;10.30;;;6.50;;
24383;SDS011;12504;52.870;8.798;2022-07-23T03:35:38;8.45;;;5.07;;
24383;SDS011;12504;52.870;8.798;2022-07-23T03:38:15;11.40;;;6.38;;
24383;SDS011;12504;52.870;8.798;2022-07-23T03:40:41;9.70;;;5.90;;
24383;SDS011;12504;52.870;8.798;2022-07-23T03:43:07;8.98;;;5.95;;
24383;SDS011;12504;52.870;8.798;2022-07-23T03:45:33;10.57;;;6.15;;
24383;SDS011;12504;52.870;8.798;2022-07-23T03:47:59;10.45;;;5.88;;
24383;SDS011;12504;52.870;8.798;2022-07-23T03:50:25;8.93;;;5.85;;
24383;SDS011;12504;52.870;8.798;2022-07-23T03:52:52;8.48;;;5.15;;
24383;SDS011;12504;52.870;8.798;2022-07-23T03:55:19;10.43;;;6.53;;
24383;SDS011;12504;52.870;8.798;2022-07-23T03:57:45;14.20;;;6.35;;
24383;SDS011;12504;52.870;8.798;2022-07-23T04:00:11;12.20;;;5.57;;
24383;SDS011;12504;52.870;8.798;2022-07-23T04:02:42;10.90;;;5.28;;
24383;SDS011;12504;52.870;8.798;2022-07-23T04:05:09;9.32;;;5.90;;
24383;SDS011;12504;52.870;8.798;2022-07-23T04:07:36;10.57;;;6.40;;
24383;SDS011;12504;52.870;8.798;2022-07-23T04:10:02;9.55;;;6.63;;
24383;SDS011;12504;52.870;8.798;2022-07-23T04:12:28;10.95;;;5.70;;
24383;SDS011;12504;52.870;8.798;2022-07-23T04:14:54;13.65;;;6.00;;
24383;SDS011;12504;52.870;8.798;2022-07-23T04:17:20;11.80;;;6.53;;
24383;SDS011;12504;52.870;8.798;2022-07-23T04:19:46;9.25;;;5.82;;
24383;SDS011;12504;52.870;8.798;2022-07-23T04:22:15;11.27;;;6.00;;
24383;SDS011;12504;52.870;8.798;2022-07-23T04:24:41;9.73;;;5.43;;
24383;SDS011;12504;52.870;8.798;2022-07-23T04:27:08;9.73;;;6.20;;
24383;SDS011;12504;52.870;8.798;2022-07-23T04:29:34;13.07;;;6.65;;
24383;SDS011;12504;52.870;8.798;2022-07-23T04:31:59;13.50;;;6.68;;
24383;SDS011;12504;52.870;8.798;2022-07-23T04:34:25;12.35;;;6.10;;
24383;SDS011;12504;52.870;8.798;2022-07-23T04:36:52;9.20;;;5.88;;
24383;SDS011;12504;52.870;8.798;2022-07-23T04:39:18;13.10;;;6.60;;
24383;SDS011;12504;52.870;8.798;2022-07-23T04:41:45;13.05;;;7.07;;
24383;SDS011;12504;52.870;8.798;2022-07-23T04:44:11;13.18;;;7.00;;
24383;SDS011;12504;52.870;8.798;2022-07-23T04:46:37;11.07;;;6.57;;
24383;SDS011;12504;52.870;8.798;2022-07-23T04:49:04;14.73;;;6.90;;
24383;SDS011;12504;52.870;8.798;2022-07-23T04:51:31;13.07;;;6.47;;
24383;SDS011;12504;52.870;8.798;2022-07-23T04:53:56;11.27;;;5.93;;
24383;SDS011;12504;52.870;8.798;2022-07-23T04:56:22;11.77;;;6.72;;
24383;SDS011;12504;52.870;8.798;2022-07-23T04:58:48;12.40;;;7.32;;
24383;SDS011;12504;52.870;8.798;2022-07-23T05:01:14;12.38;;;6.30;;
24383;SDS011;12504;52.870;8.798;2022-07-23T05:03:39;12.70;;;6.28;;
24383;SDS011;12504;52.870;8.798;2022-07-23T05:06:05;11.77;;;7.00;;
24383;SDS011;12504;52.870;8.798;2022-07-23T05:08:31;14.32;;;7.05;;
24383;SDS011;12504;52.870;8.798;2022-07-23T05:10:58;13.35;;;7.22;;
24383;SDS011;12504;52.870;8.798;2022-07-23T05:13:24;10.32;;;6.32;;
24383;SDS011;12504;52.870;8.798;2022-07-23T05:15:51;13.18;;;7.00;;
24383;SDS011;12504;52.870;8.798;2022-07-23T05:18:17;13.05;;;6.85;;
24383;SDS011;12504;52.870;8.798;2022-07-23T05:20:43;14.32;;;6.78;;
24383;SDS011;12504;52.870;8.798;2022-07-23T05:23:12;13.57;;;6.50;;
24383;SDS011;12504;52.870;8.798;2022-07-23T05:25:39;14.68;;;7.35;;
24383;SDS011;12504;52.870;8.798;2022-07-23T05:28:05;14.02;;;7.90;;
24383;SDS011;12504;52.870;8.798;2022-07-23T05:30:31;17.38;;;8.00;;
24383;SDS011;12504;52.870;8.798;2022-07-23T05:33:00;15.80;;;8.10;;
24383;SDS011;12504;52.870;8.798;2022-07-23T05:35:26;14.93;;;7.88;;
24383;SDS011;12504;52.870;8.798;2022-07-23T05:38:10;12.57;;;7.10;;
24383;SDS011;12504;52.870;8.798;2022-07-23T05:40:37;16.17;;;7.50;;
24383;SDS011;12504;52.870;8.798;2022-07-23T05:43:02;16.50;;;7.93;;
24383;SDS011;12504;52.870;8.798;2022-07-23T05:45:29;14.20;;;8.65;;
24383;SDS011;12504;52.870;8.798;2022-07-23T05:47:56;15.48;;;7.90;;
24383;SDS011;12504;52.870;8.798;2022-07-23T05:50:27;16.55;;;8.45;;
24383;SDS011;12504;52.870;8.798;2022-07-23T05:52:59;10.48;;;6.68;;
24383;SDS011;12504;52.870;8.798;2022-07-23T05:55:51;14.30;;;7.20;;
24383;SDS011;12504;52.870;8.798;2022-07-23T05:58:18;15.77;;;7.75;;
24383;SDS011;12504;52.870;8.798;2022-07-23T06:00:44;18.38;;;6.82;;
24383;SDS011;12504;52.870;8.798;2022-07-23T06:03:09;12.63;;;7.70;;
24383;SDS011;12504;52.870;8.798;2022-07-23T06:05:36;10.23;;;6.00;;
24383;SDS011;12504;52.870;8.798;2022-07-23T06:08:01;16.63;;;6.80;;
24383;SDS011;12504;52.870;8.798;2022-07-23T06:10:28;12.85;;;6.93;;
24383;SDS011;12504;52.870;8.798;2022-07-23T06:12:54;8.30;;;5.90;;
24383;SDS011;12504;52.870;8.798;2022-07-23T06:15:20;11.70;;;6.25;;
24383;SDS011;12504;52.870;8.798;2022-07-23T06:17:46;13.70;;;6.40;;
24383;SDS011;12504;52.870;8.798;2022-07-23T06:20:12;9.18;;;5.70;;
24383;SDS011;12504;52.870;8.798;2022-07-23T06:22:39;8.00;;;4.38;;
24383;SDS011;12504;52.870;8.798;2022-07-23T06:25:05;10.05;;;3.67;;
24383;SDS011;12504;52.870;8.798;2022-07-23T06:27:32;9.55;;;4.68;;
24383;SDS011;12504;52.870;8.798;2022-07-23T06:29:57;12.13;;;4.75;;
24383;SDS011;12504;52.870;8.798;2022-07-23T06:32:23;8.88;;;4.97;;
24383;SDS011;12504;52.870;8.798;2022-07-23T06:34:49;5.40;;;4.13;;
24383;SDS011;12504;52.870;8.798;2022-07-23T06:37:15;6.28;;;4.03;;
24383;SDS011;12504;52.870;8.798;2022-07-23T06:39:41;7.47;;;3.78;;
24383;SDS011;12504;52.870;8.798;2022-07-23T06:42:07;8.43;;;3.55;;
24383;SDS011;12504;52.870;8.798;2022-07-23T06:44:41;12.30;;;3.80;;
24383;SDS011;12504;52.870;8.798;2022-07-23T06:47:07;8.20;;;3.72;;
24383;SDS011;12504;52.870;8.798;2022-07-23T06:49:33;6.70;;;3.90;;
24383;SDS011;12504;52.870;8.798;2022-07-23T06:51:59;8.23;;;4.68;;
24383;SDS011;12504;52.870;8.798;2022-07-23T06:54:25;7.38;;;4.30;;
24383;SDS011;12504;52.870;8.798;2022-07-23T06:56:50;6.35;;;3.95;;
24383;SDS011;12504;52.870;8.798;2022-07-23T06:59:16;5.72;;;3.60;;
24383;SDS011;12504;52.870;8.798;2022-07-23T07:01:42;5.82;;;3.25;;
24383;SDS011;12504;52.870;8.798;2022-07-23T07:04:08;11.63;;;3.42;;
24383;SDS011;12504;52.870;8.798;2022-07-23T07:06:34;8.57;;;2.60;;
24383;SDS011;12504;52.870;8.798;2022-07-23T07:08:59;3.92;;;2.25;;
24383;SDS011;12504;52.870;8.798;2022-07-23T07:11:25;5.85;;;2.22;;
24383;SDS011;12504;52.870;8.798;2022-07-23T07:13:51;4.57;;;2.22;;
24383;SDS011;12504;52.870;8.798;2022-07-23T07:16:17;4.18;;;2.00;;
24383;SDS011;12504;52.870;8.798;2022-07-23T07:18:42;4.18;;;2.33;;
24383;SDS011;12504;52.870;8.798;2022-07-23T07:21:08;4.40;;;2.28;;
24383;SDS011;12504;52.870;8.798;2022-07-23T07:23:33;7.80;;;2.50;;
24383;SDS011;12504;52.870;8.798;2022-07-23T07:25:59;4.80;;;1.92;;
24383;SDS011;12504;52.870;8.798;2022-07-23T07:28:25;2.70;;;1.90;;
24383;SDS011;12504;52.870;8.798;2022-07-23T07:30:51;3.20;;;1.92;;
24383;SDS011;12504;52.870;8.798;2022-07-23T07:33:16;3.35;;;2.15;;
24383;SDS011;12504;52.870;8.798;2022-07-23T07:35:42;4.05;;;1.50;;
24383;SDS011;12504;52.870;8.798;2022-07-23T07:38:07;5.40;;;1.80;;
24383;SDS011;12504;52.870;8.798;2022-07-23T07:40:33;3.80;;;1.58;;
24383;SDS011;12504;52.870;8.798;2022-07-23T07:42:59;5.32;;;1.50;;
24383;SDS011;12504;52.870;8.798;2022-07-23T07:45:26;3.17;;;1.65;;
24383;SDS011;12504;52.870;8.798;2022-07-23T07:47:52;9.90;;;1.88;;
24383;SDS011;12504;52.870;8.798;2022-07-23T07:50:18;3.38;;;1.52;;
24383;SDS011;12504;52.870;8.798;2022-07-23T07:52:45;4.47;;;1.70;;
24383;SDS011;12504;52.870;8.798;2022-07-23T07:55:11;1.77;;;1.65;;
24383;SDS011;12504;52.870;8.798;2022-07-23T07:57:37;1.73;;;1.55;;
24383;SDS011;12504;52.870;8.798;2022-07-23T08:00:04;4.07;;;1.40;;
24383;SDS011;12504;52.870;8.798;2022-07-23T08:02:41;1.52;;;1.00;;
24383;SDS011;12504;52.870;8.798;2022-07-23T08:05:11;2.63;;;1.23;;
24383;SDS011;12504;52.870;8.798;2022-07-23T08:07:37;3.38;;;1.25;;
24383;SDS011;12504;52.870;8.798;2022-07-23T08:10:04;2.78;;;1.45;;
24383;SDS011;12504;52.870;8.798;2022-07-23T08:12:43;5.55;;;1.40;;
24383;SDS011;12504;52.870;8.798;2022-07-23T08:15:11;3.25;;;1.40;;
24383;SDS011;12504;52.870;8.798;2022-07-23T08:17:41;1.58;;;1.17;;
24383;SDS011;12504;52.870;8.798;2022-07-23T08:20:08;6.22;;;2.08;;
24383;SDS011;12504;52.870;8.798;2022-07-23T08:22:45;6.03;;;1.42;;
24383;SDS011;12504;52.870;8.798;2022-07-23T08:25:14;2.58;;;1.05;;
24383;SDS011;12504;52.870;8.798;2022-07-23T08:27:41;5.53;;;1.35;;
24383;SDS011;12504;52.870;8.798;2022-07-23T08:30:07;1.88;;;1.40;;
24383;SDS011;12504;52.870;8.798;2022-07-23T08:32:47;1.23;;;1.13;;
24383;SDS011;12504;52.870;8.798;2022-07-23T08:35:17;2.47;;;1.95;;
24383;SDS011;12504;52.870;8.798;2022-07-23T08:37:46;7.93;;;3.40;;
24383;SDS011;12504;52.870;8.798;2022-07-23T08:40:11;3.28;;;2.92;;
24383;SDS011;12504;52.870;8.798;2022-07-23T08:42:37;2.67;;;2.42;;
24383;SDS011;12504;52.870;8.798;2022-07-23T08:45:03;2.60;;;2.17;;
24383;SDS011;12504;52.870;8.798;2022-07-23T08:47:29;4.68;;;1.83;;
24383;SDS011;12504;52.870;8.798;2022-07-23T08:49:56;1.88;;;1.67;;
24383;SDS011;12504;52.870;8.798;2022-07-23T08:52:24;3.15;;;1.90;;
24383;SDS011;12504;52.870;8.798;2022-07-23T08:54:51;1.98;;;1.80;;
24383;SDS011;12504;52.870;8.798;2022-07-23T08:57:18;3.85;;;1.98;;
24383;SDS011;12504;52.870;8.798;2022-07-23T08:59:43;1.60;;;1.40;;
24383;SDS011;12504;52.870;8.798;2022-07-23T09:02:09;2.97;;;1.38;;
24383;SDS011;12504;52.870;8.798;2022-07-23T09:04:35;1.92;;;1.45;;
24383;SDS011;12504;52.870;8.798;2022-07-23T09:07:01;1.70;;;1.30;;
24383;SDS011;12504;52.870;8.798;2022-07-23T09:09:27;4.47;;;1.83;;
24383;SDS011;12504;52.870;8.798;2022-07-23T09:12:02;1.92;;;1.40;;
24383;SDS011;12504;52.870;8.798;2022-07-23T09:14:36;2.47;;;1.55;;
24383;SDS011;12504;52.870;8.798;2022-07-23T09:17:12;3.53;;;1.50;;
24383;SDS011;12504;52.870;8.798;2022-07-23T09:19:40;4.53;;;1.92;;
24383;SDS011;12504;52.870;8.798;2022-07-23T09:22:26;2.42;;;2.03;;
24383;SDS011;12504;52.870;8.798;2022-07-23T09:27:55;2.08;;;1.35;;
24383;SDS011;12504;52.870;8.798;2022-07-23T09:30:26;4.72;;;1.95;;
24383;SDS011;12504;52.870;8.798;2022-07-23T09:33:06;3.47;;;1.65;;
24383;SDS011;12504;52.870;8.798;2022-07-23T09:35:46;3.00;;;1.60;;
24383;SDS011;12504;52.870;8.798;2022-07-23T09:38:20;6.35;;;1.80;;
24383;SDS011;12504;52.870;8.798;2022-07-23T09:41:30;3.78;;;1.63;;
24383;SDS011;12504;52.870;8.798;2022-07-23T09:49:38;3.30;;;1.45;;
24383;SDS011;12504;52.870;8.798;2022-07-23T09:51:57;4.63;;;1.40;;
24383;SDS011;12504;52.870;8.798;2022-07-23T09:54:36;1.70;;;1.10;;
24383;SDS011;12504;52.870;8.798;2022-07-23T09:57:08;3.30;;;1.17;;
24383;SDS011;12504;52.870;8.798;2022-07-23T09:59:39;3.53;;;1.40;;
24383;SDS011;12504;52.870;8.798;2022-07-23T10:02:06;1.58;;;1.05;;
24383;SDS011;12504;52.870;8.798;2022-07-23T10:04:47;1.38;;;0.80;;
24383;SDS011;12504;52.870;8.798;2022-07-23T10:07:25;1.67;;;1.00;;
24383;SDS011;12504;52.870;8.798;2022-07-23T10:10:10;4.28;;;0.85;;
24383;SDS011;12504;52.870;8.798;2022-07-23T10:13:01;1.77;;;1.27;;
24383;SDS011;12504;52.870;8.798;2022-07-23T10:15:58;3.25;;;1.38;;
24383;SDS011;12504;52.870;8.798;2022-07-23T10:18:24;2.05;;;1.25;;
24383;SDS011;12504;52.870;8.798;2022-07-23T10:20:50;1.52;;;1.00;;
24383;SDS011;12504;52.870;8.798;2022-07-23T10:23:24;0.93;;;0.80;;
24383;SDS011;12504;52.870;8.798;2022-07-23T10:26:08;1.20;;;0.73;;
24383;SDS011;12504;52.870;8.798;2022-07-23T10:34:12;0.73;;;0.70;;
24383;SDS011;12504;52.870;8.798;2022-07-23T10:37:14;3.25;;;0.85;;
24383;SDS011;12504;52.870;8.798;2022-07-23T10:40:14;1.23;;;0.85;;
24383;SDS011;12504;52.870;8.798;2022-07-23T10:42:45;1.75;;;0.90;;
24383;SDS011;12504;52.870;8.798;2022-07-23T10:47:52;1.00;;;0.80;;
24383;SDS011;12504;52.870;8.798;2022-07-23T10:50:23;2.03;;;1.30;;
24383;SDS011;12504;52.870;8.798;2022-07-23T10:53:09;2.97;;;0.95;;
24383;SDS011;12504;52.870;8.798;2022-07-23T10:55:39;3.13;;;0.88;;
24383;SDS011;12504;52.870;8.798;2022-07-23T10:58:07;1.50;;;0.88;;
24383;SDS011;12504;52.870;8.798;2022-07-23T11:00:33;1.42;;;0.93;;
24383;SDS011;12504;52.870;8.798;2022-07-23T11:03:02;0.82;;;0.82;;
24383;SDS011;12504;52.870;8.798;2022-07-23T11:05:47;0.55;;;0.55;;
24383;SDS011;12504;52.870;8.798;2022-07-23T11:08:17;2.72;;;0.90;;
24383;SDS011;12504;52.870;8.798;2022-07-23T11:16:04;1.50;;;0.68;;
24383;SDS011;12504;52.870;8.798;2022-07-23T11:21:48;3.17;;;0.82;;
24383;SDS011;12504;52.870;8.798;2022-07-23T11:24:05;2.60;;;0.80;;
24383;SDS011;12504;52.870;8.798;2022-07-23T11:34:30;2.80;;;1.15;;
24383;SDS011;12504;52.870;8.798;2022-07-23T11:36:57;5.25;;;1.00;;
24383;SDS011;12504;52.870;8.798;2022-07-23T11:39:25;1.30;;;0.80;;
24383;SDS011;12504;52.870;8.798;2022-07-23T11:41:52;1.05;;;0.80;;
24383;SDS011;12504;52.870;8.798;2022-07-23T11:44:24;2.55;;;1.25;;
24383;SDS011;12504;52.870;8.798;2022-07-23T11:46:58;1.00;;;0.90;;
24383;SDS011;12504;52.870;8.798;2022-07-23T11:49:25;1.05;;;0.95;;
24383;SDS011;12504;52.870;8.798;2022-07-23T11:52:04;3.15;;;0.90;;
24383;SDS011;12504;52.870;8.798;2022-07-23T11:54:36;1.67;;;0.70;;
24383;SDS011;12504;52.870;8.798;2022-07-23T11:57:12;0.70;;;0.70;;
24383;SDS011;12504;52.870;8.798;2022-07-23T11:59:37;2.47;;;0.60;;
24383;SDS011;12504;52.870;8.798;2022-07-23T12:02:05;3.95;;;1.33;;
24383;SDS011;12504;52.870;8.798;2022-07-23T12:04:38;1.08;;;0.73;;
24383;SDS011;12504;52.870;8.798;2022-07-23T12:09:59;1.33;;;0.70;;
24383;SDS011;12504;52.870;8.798;2022-07-23T12:12:34;1.05;;;0.70;;
24383;SDS011;12504;52.870;8.798;2022-07-23T12:15:01;0.95;;;0.60;;
24383;SDS011;12504;52.870;8.798;2022-07-23T12:17:28;2.53;;;0.93;;
24383;SDS011;12504;52.870;8.798;2022-07-23T12:19:57;1.38;;;0.80;;
24383;SDS011;12504;52.870;8.798;2022-07-23T12:22:24;0.95;;;0.80;;
24383;SDS011;12504;52.870;8.798;2022-07-23T12:24:59;2.95;;;0.60;;
24383;SDS011;12504;52.870;8.798;2022-07-23T12:27:27;4.22;;;0.70;;
24383;SDS011;12504;52.870;8.798;2022-07-23T12:29:53;1.45;;;0.60;;
24383;SDS011;12504;52.870;8.798;2022-07-23T12:32:21;3.00;;;0.75;;
24383;SDS011;12504;52.870;8.798;2022-07-23T12:34:49;1.35;;;0.80;;
24383;SDS011;12504;52.870;8.798;2022-07-23T12:37:36;1.77;;;0.80;;
24383;SDS011;12504;52.870;8.798;2022-07-23T12:43:37;1.17;;;0.80;;
24383;SDS011;12504;52.870;8.798;2022-07-23T12:48:26;1.33;;;0.73;;
24383;SDS011;12504;52.870;8.798;2022-07-23T12:53:27;1.77;;;0.85;;
24383;SDS011;12504;52.870;8.798;2022-07-23T12:58:43;0.82;;;0.43;;
24383;SDS011;12504;52.870;8.798;2022-07-23T13:03:54;0.40;;;0.40;;
24383;SDS011;12504;52.870;8.798;2022-07-23T13:06:22;1.65;;;0.40;;
24383;SDS011;12504;52.870;8.798;2022-07-23T13:08:48;1.25;;;0.60;;
24383;SDS011;12504;52.870;8.798;2022-07-23T13:11:14;1.15;;;0.52;;
24383;SDS011;12504;52.870;8.798;2022-07-23T13:13:39;0.75;;;0.40;;
24383;SDS011;12504;52.870;8.798;2022-07-23T13:16:06;1.65;;;0.77;;
24383;SDS011;12504;52.870;8.798;2022-07-23T13:18:32;1.08;;;0.52;;
24383;SDS011;12504;52.870;8.798;2022-07-23T13:20:58;3.20;;;0.52;;
24383;SDS011;12504;52.870;8.798;2022-07-23T13:23:24;1.83;;;0.50;;
24383;SDS011;12504;52.870;8.798;2022-07-23T13:25:50;2.15;;;1.35;;
24383;SDS011;12504;52.870;8.798;2022-07-23T13:28:17;2.55;;;0.50;;
24383;SDS011;12504;52.870;8.798;2022-07-23T13:30:43;0.98;;;0.50;;
24383;SDS011;12504;52.870;8.798;2022-07-23T13:33:10;1.60;;;0.52;;
24383;SDS011;12504;52.870;8.798;2022-07-23T13:35:36;1.23;;;0.60;;
24383;SDS011;12504;52.870;8.798;2022-07-23T13:38:03;2.47;;;0.80;;
24383;SDS011;12504;52.870;8.798;2022-07-23T13:40:29;1.40;;;0.88;;
24383;SDS011;12504;52.870;8.798;2022-07-23T13:42:55;4.75;;;1.05;;
24383;SDS011;12504;52.870;8.798;2022-07-23T13:45:21;1.13;;;0.80;;
24383;SDS011;12504;52.870;8.798;2022-07-23T13:47:47;1.42;;;0.70;;
24383;SDS011;12504;52.870;8.798;2022-07-23T13:50:13;0.77;;;0.60;;
24383;SDS011;12504;52.870;8.798;2022-07-23T13:52:41;1.23;;;0.80;;
24383;SDS011;12504;52.870;8.798;2022-07-23T13:55:07;2.05;;;0.60;;
24383;SDS011;12504;52.870;8.798;2022-07-23T13:57:33;2.45;;;0.65;;
24383;SDS011;12504;52.870;8.798;2022-07-23T13:59:58;1.00;;;0.55;;
24383;SDS011;12504;52.870;8.798;2022-07-23T14:02:25;0.60;;;0.50;;
24383;SDS011;12504;52.870;8.798;2022-07-23T14:04:51;1.67;;;0.70;;
24383;SDS011;12504;52.870;8.798;2022-07-23T14:07:17;1.45;;;0.60;;
24383;SDS011;12504;52.870;8.798;2022-07-23T14:09:43;0.77;;;0.73;;
24383;SDS011;12504;52.870;8.798;2022-07-23T14:12:09;0.90;;;0.55;;
24383;SDS011;12504;52.870;8.798;2022-07-23T14:14:35;0.90;;;0.65;;
24383;SDS011;12504;52.870;8.798;2022-07-23T14:17:01;0.55;;;0.40;;
24383;SDS011;12504;52.870;8.798;2022-07-23T14:19:27;1.80;;;0.47;;
24383;SDS011;12504;52.870;8.798;2022-07-23T14:21:53;1.65;;;0.70;;
24383;SDS011;12504;52.870;8.798;2022-07-23T14:24:19;1.70;;;0.63;;
24383;SDS011;12504;52.870;8.798;2022-07-23T14:26:44;1.00;;;0.50;;
24383;SDS011;12504;52.870;8.798;2022-07-23T14:29:11;1.33;;;0.50;;
24383;SDS011;12504;52.870;8.798;2022-07-23T14:31:37;1.40;;;0.70;;
24383;SDS011;12504;52.870;8.798;2022-07-23T14:34:03;1.17;;;0.40;;
24383;SDS011;12504;52.870;8.798;2022-07-23T14:36:28;2.13;;;0.50;;
24383;SDS011;12504;52.870;8.798;2022-07-23T14:38:54;3.83;;;0.70;;
24383;SDS011;12504;52.870;8.798;2022-07-23T14:41:20;1.65;;;0.60;;
24383;SDS011;12504;52.870;8.798;2022-07-23T14:43:46;0.70;;;0.70;;
24383;SDS011;12504;52.870;8.798;2022-07-23T14:46:12;2.00;;;0.70;;
24383;SDS011;12504;52.870;8.798;2022-07-23T14:48:38;1.27;;;0.93;;
24383;SDS011;12504;52.870;8.798;2022-07-23T14:51:04;0.77;;;0.70;;
24383;SDS011;12504;52.870;8.798;2022-07-23T14:53:30;1.70;;;1.00;;
24383;SDS011;12504;52.870;8.798;2022-07-23T14:55:56;2.42;;;0.75;;
24383;SDS011;12504;52.870;8.798;2022-07-23T14:58:22;0.75;;;0.60;;
24383;SDS011;12504;52.870;8.798;2022-07-23T15:00:49;2.03;;;1.35;;
24383;SDS011;12504;52.870;8.798;2022-07-23T15:03:15;0.88;;;0.70;;
24383;SDS011;12504;52.870;8.798;2022-07-23T15:05:41;1.42;;;0.73;;
24383;SDS011;12504;52.870;8.798;2022-07-23T15:08:06;5.88;;;1.13;;
24383;SDS011;12504;52.870;8.798;2022-07-23T15:10:32;0.57;;;0.57;;
24383;SDS011;12504;52.870;8.798;2022-07-23T15:12:58;1.30;;;0.70;;
24383;SDS011;12504;52.870;8.798;2022-07-23T15:15:23;2.38;;;0.95;;
24383;SDS011;12504;52.870;8.798;2022-07-23T15:17:49;1.50;;;1.40;;
24383;SDS011;12504;52.870;8.798;2022-07-23T15:20:15;1.98;;;0.80;;
24383;SDS011;12504;52.870;8.798;2022-07-23T15:22:40;0.63;;;0.63;;
24383;SDS011;12504;52.870;8.798;2022-07-23T15:25:06;1.00;;;0.88;;
24383;SDS011;12504;52.870;8.798;2022-07-23T15:27:32;1.35;;;0.98;;
24383;SDS011;12504;52.870;8.798;2022-07-23T15:29:58;1.05;;;0.80;;
24383;SDS011;12504;52.870;8.798;2022-07-23T15:32:24;2.97;;;1.17;;
24383;SDS011;12504;52.870;8.798;2022-07-23T15:34:51;1.58;;;0.90;;
24383;SDS011;12504;52.870;8.798;2022-07-23T15:37:18;1.65;;;0.75;;
24383;SDS011;12504;52.870;8.798;2022-07-23T15:39:43;1.88;;;0.80;;